Nondalton, Alaska
Current Conditions -  °F | °C
As of 4:53 PM on Saturday 20 Dec 2014 (Local Time) from PAIL Reporting Station
Broken Clouds Broken Clouds  
Wind Chill: 11°   Ceiling: 7000
Heat Index: 21°   Visibility: 10mi
Dew Point: 14°   Wind: 9mph
Humidity: 74%   Direction: 360°N
Pressure: 28.91"   Gusts: NA
Location:  59.98°N, 154.85°W
Report Text: PAIL 210153Z 36008KT 10SM SCT045 BKN070 BKN100 M06/M10 A2891 RMK AO2 SLP794 T10611100
Loading
Personal Weather Stations






























Interactive Weather Map New forecast layout! Learn more

10-Day Weather Forecast

Advertisements
Track Severe Weather on mobile